createdAt,value
2022-09-06T00:00:36.129Z,100.00
2022-09-06T00:03:05.787Z,100.00
2022-09-06T00:05:34.934Z,100.00
2022-09-06T00:08:06.605Z,100.00
2022-09-06T00:10:35.896Z,100.00
2022-09-06T00:13:07.729Z,100.00
2022-09-06T00:15:38.185Z,100.00
2022-09-06T00:18:08.930Z,100.00
2022-09-06T00:20:41.772Z,100.00
2022-09-06T00:23:10.882Z,100.00
2022-09-06T00:25:41.620Z,100.00
2022-09-06T00:28:10.834Z,100.00
2022-09-06T00:30:40.066Z,100.00
2022-09-06T00:33:09.209Z,100.00
2022-09-06T00:35:38.411Z,100.00
2022-09-06T00:38:07.520Z,100.00
2022-09-06T00:40:36.796Z,100.00
2022-09-06T00:43:06.203Z,100.00
2022-09-06T00:45:35.392Z,100.00
2022-09-06T00:48:06.339Z,100.00
2022-09-06T00:50:35.620Z,100.00
2022-09-06T00:53:05.100Z,100.00
2022-09-06T00:55:34.912Z,100.00
2022-09-06T00:58:04.592Z,100.00
2022-09-06T01:00:33.863Z,100.00
2022-09-06T01:03:02.953Z,100.00
2022-09-06T01:05:34.921Z,100.00
2022-09-06T01:08:28.273Z,100.00
2022-09-06T01:11:27.792Z,100.00
2022-09-06T01:14:12.077Z,100.00
2022-09-06T01:16:46.753Z,100.00
2022-09-06T01:19:53.857Z,100.00
2022-09-06T01:22:51.212Z,100.00
2022-09-06T01:25:37.511Z,100.00
2022-09-06T01:28:38.950Z,100.00
2022-09-06T01:31:19.710Z,100.00
2022-09-06T01:34:06.798Z,100.00
2022-09-06T01:37:08.486Z,100.00
2022-09-06T01:39:24.552Z,100.00
2022-09-06T01:41:54.919Z,100.00
2022-09-06T01:44:25.683Z,100.00
2022-09-06T01:47:15.750Z,100.00
2022-09-06T01:49:53.542Z,100.00
2022-09-06T01:52:57.378Z,100.00
2022-09-06T01:55:32.484Z,100.00
2022-09-06T01:58:36.510Z,100.00
2022-09-06T02:01:14.338Z,100.00
2022-09-06T02:03:49.176Z,100.00
2022-09-06T02:06:21.194Z,100.00
2022-09-06T02:08:53.266Z,100.00
2022-09-06T02:11:25.998Z,100.00
2022-09-06T02:13:58.046Z,100.00
2022-09-06T02:16:30.332Z,100.00
2022-09-06T02:19:02.449Z,100.00
2022-09-06T02:21:34.353Z,100.00
2022-09-06T02:24:06.388Z,100.00
2022-09-06T02:26:38.462Z,100.00
2022-09-06T02:29:08.110Z,100.00
2022-09-06T02:31:51.990Z,100.00
2022-09-06T02:34:22.389Z,100.00
2022-09-06T02:36:51.805Z,100.00
2022-09-06T02:39:21.008Z,100.00
2022-09-06T02:41:50.639Z,100.00
2022-09-06T02:44:19.813Z,100.00
2022-09-06T02:46:49.006Z,100.00
2022-09-06T02:49:18.207Z,100.00
2022-09-06T02:51:47.435Z,100.00
2022-09-06T02:54:16.531Z,100.00
2022-09-06T02:56:50.175Z,100.00
2022-09-06T02:59:16.832Z,100.00
2022-09-06T03:01:46.063Z,100.00
2022-09-06T03:04:15.234Z,100.00
2022-09-06T03:06:44.436Z,100.00
2022-09-06T03:09:13.783Z,100.00
2022-09-06T03:11:43.062Z,100.00
2022-09-06T03:14:12.132Z,100.00
2022-09-06T03:16:41.362Z,100.00
2022-09-06T03:19:10.500Z,100.00
2022-09-06T03:21:39.640Z,100.00
2022-09-06T03:24:09.029Z,100.00
2022-09-06T03:26:38.114Z,100.00
2022-09-06T03:29:07.413Z,100.00
2022-09-06T03:31:36.632Z,100.00
2022-09-06T03:34:10.294Z,100.00
2022-09-06T03:36:36.440Z,100.00
2022-09-06T03:39:06.866Z,100.00
2022-09-06T03:41:35.971Z,100.00
2022-09-06T03:44:05.424Z,100.00
2022-09-06T03:46:34.982Z,100.00
2022-09-06T03:49:04.067Z,100.00
2022-09-06T03:51:33.370Z,100.00
2022-09-06T03:54:02.624Z,100.00
2022-09-06T03:56:31.970Z,100.00
2022-09-06T03:59:01.685Z,99.23
2022-09-06T04:01:31.149Z,100.00
2022-09-06T04:04:01.685Z,97.09
2022-09-06T04:06:30.798Z,83.47
2022-09-06T04:09:00.012Z,84.42
2022-09-06T04:11:29.207Z,81.05
2022-09-06T04:13:58.393Z,77.60
2022-09-06T04:16:27.612Z,75.50
2022-09-06T04:18:58.031Z,69.13
2022-09-06T04:21:27.125Z,68.61
2022-09-06T04:23:56.339Z,69.87
2022-09-06T04:26:25.520Z,60.42
2022-09-06T04:28:54.707Z,66.82
2022-09-06T04:31:23.976Z,67.67
2022-09-06T04:33:53.108Z,64.23
2022-09-06T04:36:22.822Z,64.23
2022-09-06T04:38:52.007Z,74.50
2022-09-06T04:41:21.553Z,79.13
2022-09-06T04:43:50.616Z,73.74
2022-09-06T04:46:28.531Z,65.30
2022-09-06T04:48:58.817Z,66.43
2022-09-06T04:51:29.321Z,62.38
2022-09-06T04:53:58.586Z,62.92
2022-09-06T04:56:28.612Z,60.68
2022-09-06T04:58:58.087Z,56.23
2022-09-06T05:01:27.341Z,56.23
2022-09-06T05:03:57.216Z,55.55
2022-09-06T05:06:27.151Z,53.54
2022-09-06T05:08:56.323Z,54.13
2022-09-06T05:11:25.727Z,50.87
2022-09-06T05:13:54.937Z,50.87
2022-09-06T05:16:24.474Z,54.57
2022-09-06T05:18:53.665Z,50.89
2022-09-06T05:21:23.331Z,48.81
2022-09-06T05:23:55.484Z,48.50
2022-09-06T05:26:23.454Z,49.41
2022-09-06T05:28:52.670Z,47.51
2022-09-06T05:31:30.470Z,48.75
2022-09-06T05:34:00.612Z,48.34
2022-09-06T05:36:31.368Z,48.34
2022-09-06T05:39:00.823Z,46.74
2022-09-06T05:41:29.917Z,50.12
2022-09-06T05:43:59.140Z,48.06
2022-09-06T05:46:28.307Z,49.40
2022-09-06T05:49:02.938Z,47.17
2022-09-06T05:51:33.177Z,47.17
2022-09-06T05:54:02.456Z,47.17
2022-09-06T05:56:31.562Z,47.67
2022-09-06T05:59:00.850Z,47.67
2022-09-06T06:01:31.707Z,49.09
2022-09-06T06:04:02.996Z,49.84
2022-09-06T06:06:35.013Z,49.84
2022-09-06T06:09:04.227Z,53.26
2022-09-06T06:11:33.630Z,62.79
2022-09-06T06:14:04.023Z,69.56
2022-09-06T06:16:33.503Z,64.50
2022-09-06T06:19:02.926Z,62.98
2022-09-06T06:21:34.486Z,62.98
2022-09-06T06:24:05.557Z,54.60
2022-09-06T06:26:36.998Z,54.60
2022-09-06T06:29:08.577Z,46.54
2022-09-06T06:31:39.330Z,48.13
2022-09-06T06:34:09.495Z,46.71
2022-09-06T06:36:39.181Z,47.06
2022-09-06T06:39:09.830Z,46.51
2022-09-06T06:41:39.022Z,46.45
2022-09-06T06:44:08.248Z,43.83
2022-09-06T06:46:39.520Z,43.83
2022-09-06T06:49:08.654Z,42.99
2022-09-06T06:51:38.014Z,42.06
2022-09-06T06:54:07.622Z,41.84
2022-09-06T06:56:40.877Z,41.84
2022-09-06T06:59:09.961Z,42.25
2022-09-06T07:01:39.833Z,39.90
2022-09-06T07:04:10.748Z,42.34
2022-09-06T07:11:58.317Z,40.88
2022-09-06T07:14:27.476Z,40.06
2022-09-06T07:16:58.209Z,39.63
2022-09-06T07:22:02.884Z,40.20
2022-09-06T07:24:30.542Z,38.01
2022-09-06T07:29:30.439Z,34.54
2022-09-06T07:32:16.006Z,34.91
2022-09-06T07:34:33.247Z,34.20
2022-09-06T07:37:02.342Z,34.12
2022-09-06T07:39:33.155Z,33.46
2022-09-06T07:42:02.404Z,34.54
2022-09-06T07:44:31.570Z,34.90
2022-09-06T07:49:34.808Z,36.28
2022-09-06T07:54:35.150Z,35.06
2022-09-06T07:57:04.217Z,35.77
2022-09-06T07:59:33.464Z,36.32
2022-09-06T08:02:02.647Z,36.32
2022-09-06T08:04:32.950Z,33.58
2022-09-06T08:09:33.378Z,36.66
2022-09-06T08:12:04.056Z,33.33
2022-09-06T08:14:33.422Z,33.33
2022-09-06T08:17:02.938Z,33.37
2022-09-06T08:19:32.147Z,35.17
2022-09-06T08:22:01.787Z,35.17
2022-09-06T08:24:31.567Z,36.40
2022-09-06T08:27:00.823Z,36.59
2022-09-06T08:29:30.040Z,33.11
2022-09-06T08:31:59.296Z,33.11
2022-09-06T08:34:28.580Z,33.54
2022-09-06T08:36:57.731Z,33.54
2022-09-06T08:39:26.970Z,33.89
2022-09-06T08:42:05.653Z,32.83
2022-09-06T08:44:56.651Z,32.11
2022-09-06T08:47:21.538Z,32.11
2022-09-06T08:50:05.713Z,32.32
2022-09-06T08:55:31.849Z,30.95
2022-09-06T08:58:37.508Z,30.95
2022-09-06T09:01:09.814Z,31.63
2022-09-06T09:03:41.435Z,31.92
2022-09-06T09:06:11.363Z,30.09
2022-09-06T09:08:49.449Z,30.78
2022-09-06T09:11:25.723Z,30.78
2022-09-06T09:14:07.519Z,34.01
2022-09-06T09:16:37.043Z,34.09
2022-09-06T09:19:07.441Z,35.14
2022-09-06T09:21:39.329Z,35.70
2022-09-06T09:24:11.393Z,35.70
2022-09-06T09:26:52.888Z,35.39
2022-09-06T09:29:27.469Z,35.98
2022-09-06T09:31:55.434Z,35.52
2022-09-06T09:34:36.450Z,35.52
2022-09-06T09:39:59.462Z,33.81
2022-09-06T09:42:31.865Z,33.28
2022-09-06T09:45:02.760Z,33.15
2022-09-06T09:47:34.572Z,33.15
2022-09-06T09:50:05.119Z,34.74
2022-09-06T09:52:34.285Z,35.61
2022-09-06T09:55:07.327Z,36.27
2022-09-06T09:57:39.387Z,35.09
2022-09-06T10:00:11.283Z,35.29
2022-09-06T10:02:42.401Z,35.29
2022-09-06T10:05:17.082Z,36.63
2022-09-06T10:07:49.573Z,36.65
2022-09-06T10:10:27.270Z,36.65
2022-09-06T10:13:23.593Z,35.85
2022-09-06T10:15:54.728Z,33.90
2022-09-06T10:18:35.899Z,35.73
2022-09-06T10:21:20.152Z,36.59
2022-09-06T10:24:27.065Z,36.68
2022-09-06T10:27:00.012Z,36.68
2022-09-06T10:29:40.818Z,36.37
2022-09-06T10:32:26.411Z,37.68
2022-09-06T10:35:01.197Z,36.43
2022-09-06T10:37:52.838Z,36.74
2022-09-06T10:40:28.268Z,36.74
2022-09-06T10:43:01.598Z,37.19
2022-09-06T10:45:48.433Z,37.06
2022-09-06T10:48:36.847Z,36.84
2022-09-06T10:51:21.479Z,36.84
2022-09-06T10:54:08.302Z,37.19
2022-09-06T10:56:46.907Z,36.46
2022-09-06T10:59:39.948Z,34.89
2022-09-06T11:02:23.720Z,34.89
2022-09-06T11:07:34.602Z,34.99
2022-09-06T11:10:15.900Z,35.10
2022-09-06T11:12:50.400Z,35.10
2022-09-06T11:15:22.194Z,36.26
2022-09-06T11:17:54.154Z,36.98
2022-09-06T11:20:32.401Z,37.72
2022-09-06T11:23:10.765Z,36.50
2022-09-06T11:26:01.279Z,36.50
2022-09-06T11:28:38.518Z,35.83
2022-09-06T11:31:09.731Z,35.49
2022-09-06T11:33:40.324Z,34.68
2022-09-06T11:36:21.097Z,35.67
2022-09-06T11:39:01.587Z,36.35
2022-09-06T11:41:33.506Z,37.47
2022-09-06T11:44:02.853Z,37.47
2022-09-06T11:46:43.353Z,34.83
2022-09-06T11:49:33.199Z,34.83
2022-09-06T11:52:03.902Z,35.21
2022-09-06T11:54:48.149Z,35.21
2022-09-06T11:57:24.628Z,35.74
2022-09-06T11:59:56.646Z,36.77
2022-09-06T12:02:38.161Z,37.44
2022-09-06T12:05:10.313Z,38.43
2022-09-06T12:07:42.370Z,38.43
2022-09-06T12:10:32.880Z,38.83
2022-09-06T12:13:02.083Z,38.91
2022-09-06T12:15:37.131Z,37.97
2022-09-06T12:18:06.315Z,38.14
2022-09-06T12:20:56.999Z,37.23
2022-09-06T12:23:41.162Z,36.67
2022-09-06T12:26:11.666Z,36.84
2022-09-06T12:28:55.005Z,38.36
2022-09-06T12:31:32.570Z,38.36
2022-09-06T12:34:04.561Z,38.53
2022-09-06T12:36:34.581Z,37.88
2022-09-06T12:39:16.456Z,37.88
2022-09-06T12:41:49.069Z,36.63
2022-09-06T12:44:20.424Z,36.63
2022-09-06T12:46:52.288Z,36.67
2022-09-06T12:49:23.780Z,36.67
2022-09-06T12:51:54.756Z,36.87
2022-09-06T12:54:27.038Z,36.87
2022-09-06T12:56:59.447Z,37.47
2022-09-06T12:59:32.529Z,37.91
2022-09-06T13:02:25.799Z,37.78
2022-09-06T13:04:58.988Z,36.99
2022-09-06T13:07:29.370Z,37.05
2022-09-06T13:09:59.638Z,37.05
2022-09-06T13:12:31.432Z,37.32
2022-09-06T13:15:03.652Z,39.66
2022-09-06T13:17:34.169Z,39.66
2022-09-06T13:20:12.464Z,40.17
2022-09-06T13:22:44.441Z,39.92
2022-09-06T13:25:26.378Z,39.92
2022-09-06T13:27:58.909Z,39.12
2022-09-06T13:30:41.628Z,40.05
2022-09-06T13:33:29.109Z,39.36
2022-09-06T13:36:10.880Z,38.64
2022-09-06T13:38:42.819Z,37.83
2022-09-06T13:41:16.566Z,37.09
2022-09-06T13:43:50.525Z,38.14
2022-09-06T13:46:20.038Z,38.80
2022-09-06T13:48:49.483Z,39.18
2022-09-06T13:51:20.864Z,38.53
2022-09-06T13:53:50.292Z,38.53
2022-09-06T13:56:19.423Z,38.08
2022-09-06T13:58:48.590Z,37.45
2022-09-06T14:01:19.392Z,37.88
2022-09-06T14:03:50.375Z,38.90
2022-09-06T14:06:20.723Z,38.90
2022-09-06T14:09:06.542Z,39.13
2022-09-06T14:11:20.934Z,39.32
2022-09-06T14:13:50.293Z,39.32
2022-09-06T14:16:19.723Z,39.60
2022-09-06T14:18:48.975Z,39.60
2022-09-06T14:21:18.136Z,39.68
2022-09-06T14:23:52.834Z,39.58
2022-09-06T14:26:23.602Z,39.58
2022-09-06T14:28:53.196Z,39.33
2022-09-06T14:31:26.375Z,39.78
2022-09-06T14:33:57.545Z,39.22
2022-09-06T14:36:29.714Z,39.21
2022-09-06T14:39:00.499Z,39.17
2022-09-06T14:41:30.228Z,39.32
2022-09-06T14:44:00.782Z,39.29
2022-09-06T14:46:30.981Z,39.47
2022-09-06T14:49:10.398Z,39.32
2022-09-06T14:51:40.865Z,39.38
2022-09-06T14:54:12.932Z,40.06
2022-09-06T14:56:44.437Z,40.06
2022-09-06T14:59:14.302Z,40.11
2022-09-06T15:01:43.890Z,40.46
2022-09-06T15:04:13.504Z,40.48
2022-09-06T15:06:44.654Z,40.75
2022-09-06T15:09:15.287Z,40.86
2022-09-06T15:11:50.946Z,41.54
2022-09-06T15:14:25.723Z,41.42
2022-09-06T15:17:00.250Z,41.24
2022-09-06T15:19:32.754Z,41.26
2022-09-06T15:22:02.168Z,40.77
2022-09-06T15:24:31.479Z,41.44
2022-09-06T15:27:01.110Z,41.84
2022-09-06T15:29:30.394Z,41.77
2022-09-06T15:31:59.675Z,41.77
2022-09-06T15:34:29.115Z,42.29
2022-09-06T15:36:58.411Z,43.59
2022-09-06T15:39:27.740Z,43.05
2022-09-06T15:41:58.103Z,44.85
2022-09-06T15:44:27.282Z,44.99
2022-09-06T15:46:59.580Z,45.60
2022-09-06T15:49:32.160Z,45.60
2022-09-06T15:52:03.316Z,45.67
2022-09-06T15:54:50.101Z,46.36
2022-09-06T15:57:19.205Z,46.36
2022-09-06T15:59:48.605Z,47.05
2022-09-06T16:02:17.761Z,47.89
2022-09-06T16:04:47.615Z,47.89
2022-09-06T16:07:16.802Z,48.36
2022-09-06T16:09:46.139Z,49.98
2022-09-06T16:12:15.308Z,50.14
2022-09-06T16:14:44.426Z,50.14
2022-09-06T16:17:13.594Z,51.88
2022-09-06T16:19:43.044Z,52.59
2022-09-06T16:22:14.117Z,52.55
2022-09-06T16:24:43.674Z,54.15
2022-09-06T16:27:12.800Z,53.92
2022-09-06T16:29:42.291Z,53.92
2022-09-06T16:32:11.427Z,55.26
2022-09-06T16:34:40.996Z,56.09
2022-09-06T16:37:10.262Z,54.85
2022-09-06T16:39:39.482Z,55.70
2022-09-06T16:42:08.684Z,55.45
2022-09-06T16:44:38.052Z,55.45
2022-09-06T16:47:07.324Z,55.39
2022-09-06T16:49:36.588Z,56.30
2022-09-06T16:52:05.741Z,56.48
2022-09-06T16:54:34.941Z,56.48
2022-09-06T16:57:04.448Z,56.69
2022-09-06T16:59:33.840Z,56.30
2022-09-06T17:02:03.569Z,56.59
2022-09-06T17:04:32.757Z,56.53
2022-09-06T17:07:01.911Z,56.86
2022-09-06T17:09:32.573Z,56.86
2022-09-06T17:12:01.775Z,58.75
2022-09-06T17:14:31.002Z,58.75
2022-09-06T17:17:06.106Z,58.88
2022-09-06T17:19:40.874Z,58.88
2022-09-06T17:22:11.083Z,59.93
2022-09-06T17:24:41.591Z,58.77
2022-09-06T17:27:11.499Z,59.50
2022-09-06T17:29:41.053Z,59.50
2022-09-06T17:32:10.728Z,60.06
2022-09-06T17:34:41.351Z,59.49
2022-09-06T17:37:10.528Z,61.03
2022-09-06T17:39:40.726Z,60.48
2022-09-06T17:42:10.086Z,60.48
2022-09-06T17:44:40.293Z,60.84
2022-09-06T17:47:12.942Z,61.06
2022-09-06T17:49:40.202Z,60.67
2022-09-06T17:52:09.255Z,60.67
2022-09-06T17:54:38.373Z,61.49
2022-09-06T17:57:07.542Z,62.69
2022-09-06T17:59:36.761Z,61.89
2022-09-06T18:02:06.721Z,61.89
2022-09-06T18:04:36.038Z,62.65
2022-09-06T18:07:05.354Z,62.95
2022-09-06T18:09:34.646Z,62.38
2022-09-06T18:12:04.111Z,62.62
2022-09-06T18:14:33.748Z,62.62
2022-09-06T18:17:02.965Z,62.88
2022-09-06T18:19:32.544Z,62.88
2022-09-06T18:22:01.739Z,63.27
2022-09-06T18:24:31.050Z,64.49
2022-09-06T18:27:01.803Z,64.49
2022-09-06T18:29:31.101Z,64.92
2022-09-06T18:32:00.534Z,64.92
2022-09-06T18:34:29.746Z,64.69
2022-09-06T18:36:59.459Z,65.42
2022-09-06T18:39:28.656Z,66.72
2022-09-06T18:42:00.511Z,68.90
2022-09-06T18:44:32.591Z,69.58
2022-09-06T18:47:05.772Z,69.58
2022-09-06T18:49:35.529Z,69.92
2022-09-06T18:52:06.704Z,69.92
2022-09-06T18:54:36.887Z,71.43
2022-09-06T18:57:06.235Z,72.59
2022-09-06T18:59:35.398Z,71.75
2022-09-06T19:02:04.864Z,73.14
2022-09-06T19:04:34.079Z,73.14
2022-09-06T19:07:04.594Z,73.81
2022-09-06T19:09:33.935Z,72.36
2022-09-06T19:12:05.068Z,72.07
2022-09-06T19:14:34.246Z,72.07
2022-09-06T19:17:03.535Z,74.77
2022-09-06T19:19:32.643Z,73.22
2022-09-06T19:22:02.217Z,71.39
2022-09-06T19:24:31.306Z,72.17
2022-09-06T19:27:00.440Z,74.48
2022-09-06T19:29:29.570Z,73.03
2022-09-06T19:31:58.820Z,73.03
2022-09-06T19:34:27.995Z,74.70
2022-09-06T19:36:57.649Z,74.43
2022-09-06T19:39:36.239Z,75.22
2022-09-06T19:42:02.137Z,75.22
2022-09-06T19:44:31.276Z,77.42
2022-09-06T19:47:00.671Z,80.42
2022-09-06T19:49:31.149Z,79.76
2022-09-06T19:52:00.356Z,80.81
2022-09-06T19:54:30.730Z,87.52
2022-09-06T19:56:59.932Z,89.50
2022-09-06T19:59:29.310Z,89.50
2022-09-06T20:01:58.698Z,88.57
2022-09-06T20:04:28.962Z,89.91
2022-09-06T20:06:58.378Z,90.97
2022-09-06T20:09:27.459Z,90.97
2022-09-06T20:11:56.656Z,90.44
2022-09-06T20:14:26.705Z,90.64
2022-09-06T20:17:06.545Z,93.65
2022-09-06T20:19:26.730Z,93.65
2022-09-06T20:21:55.899Z,90.50
2022-09-06T20:24:25.200Z,93.87
2022-09-06T20:26:54.740Z,93.35
2022-09-06T20:29:25.212Z,92.73
2022-09-06T20:31:54.334Z,92.66
2022-09-06T20:34:23.541Z,92.08
2022-09-06T20:36:52.660Z,92.89
2022-09-06T20:39:21.741Z,92.89
2022-09-06T20:41:50.918Z,92.95
2022-09-06T20:44:20.121Z,96.71
2022-09-06T20:46:49.422Z,96.71
2022-09-06T20:49:19.330Z,96.29
2022-09-06T20:51:48.525Z,95.56
2022-09-06T20:54:17.825Z,99.00
2022-09-06T20:56:47.020Z,99.00
2022-09-06T20:59:16.181Z,100.00
2022-09-06T21:01:47.473Z,99.87
2022-09-06T21:04:18.168Z,100.00
2022-09-06T21:06:47.408Z,100.00
2022-09-06T21:09:16.953Z,100.00
2022-09-06T21:11:46.212Z,100.00
2022-09-06T21:14:15.696Z,100.00
2022-09-06T21:16:44.885Z,100.00
2022-09-06T21:19:14.650Z,100.00
2022-09-06T21:21:44.036Z,100.00
2022-09-06T21:24:13.596Z,100.00
2022-09-06T21:26:44.940Z,100.00
2022-09-06T21:29:14.695Z,100.00
2022-09-06T21:31:45.602Z,100.00
2022-09-06T21:34:17.255Z,100.00
2022-09-06T21:36:45.954Z,100.00
2022-09-06T21:39:15.528Z,100.00
2022-09-06T21:41:46.713Z,100.00
2022-09-06T21:44:16.018Z,100.00
2022-09-06T21:46:45.383Z,100.00
2022-09-06T21:49:15.746Z,100.00
2022-09-06T21:51:45.192Z,100.00
2022-09-06T21:54:14.371Z,100.00
2022-09-06T21:56:43.597Z,100.00
2022-09-06T21:59:13.061Z,100.00
2022-09-06T22:01:45.100Z,100.00
2022-09-06T22:04:13.264Z,100.00
2022-09-06T22:06:42.496Z,100.00
2022-09-06T22:09:13.394Z,100.00
2022-09-06T22:11:44.814Z,100.00
2022-09-06T22:14:15.874Z,100.00
2022-09-06T22:16:45.152Z,100.00
2022-09-06T22:19:15.058Z,100.00
2022-09-06T22:21:44.264Z,100.00
2022-09-06T22:24:14.646Z,100.00
2022-09-06T22:26:43.853Z,100.00
2022-09-06T22:29:17.085Z,100.00
2022-09-06T22:31:46.436Z,100.00
2022-09-06T22:34:15.878Z,100.00
2022-09-06T22:36:45.037Z,100.00
2022-09-06T22:39:14.357Z,100.00
2022-09-06T22:41:43.585Z,100.00
2022-09-06T22:44:13.639Z,100.00
2022-09-06T22:46:43.336Z,100.00
2022-09-06T22:49:12.561Z,100.00
2022-09-06T22:51:41.658Z,100.00
2022-09-06T22:54:11.413Z,100.00
2022-09-06T22:56:40.575Z,100.00
2022-09-06T22:59:09.655Z,100.00
2022-09-06T23:01:39.576Z,100.00
2022-09-06T23:04:09.927Z,100.00
2022-09-06T23:06:39.611Z,100.00
2022-09-06T23:09:08.798Z,100.00
2022-09-06T23:11:37.903Z,100.00
2022-09-06T23:14:07.136Z,100.00
2022-09-06T23:16:36.425Z,100.00
2022-09-06T23:19:05.701Z,100.00
2022-09-06T23:21:34.922Z,100.00
2022-09-06T23:24:04.367Z,100.00
2022-09-06T23:26:34.730Z,100.00
2022-09-06T23:29:03.929Z,100.00
2022-09-06T23:31:33.783Z,100.00
2022-09-06T23:34:04.161Z,100.00
2022-09-06T23:36:33.971Z,100.00
2022-09-06T23:39:03.398Z,100.00
2022-09-06T23:41:32.899Z,100.00
2022-09-06T23:44:02.176Z,100.00
2022-09-06T23:46:32.141Z,100.00
2022-09-06T23:49:01.293Z,100.00
2022-09-06T23:51:30.486Z,100.00
2022-09-06T23:53:59.985Z,100.00
2022-09-06T23:56:29.189Z,100.00
2022-09-06T23:58:58.390Z,100.00
